createdAt,value
2022-11-28T00:01:43.022Z,101741.06
2022-11-28T00:04:12.020Z,101746.38
2022-11-28T00:06:45.389Z,101746.31
2022-11-28T00:09:14.557Z,101741.03
2022-11-28T00:11:44.217Z,101737.38
2022-11-28T00:14:12.474Z,101744.38
2022-11-28T00:16:40.687Z,101745.31
2022-11-28T00:19:09.143Z,101735.78
2022-11-28T00:21:37.372Z,101740.78
2022-11-28T00:24:08.179Z,101741.81
2022-11-28T00:26:38.817Z,101749.63
2022-11-28T00:29:08.430Z,101740.94
2022-11-28T00:31:42.365Z,101726.16
2022-11-28T00:34:12.952Z,101732.13
2022-11-28T00:36:41.171Z,101732.28
2022-11-28T00:39:11.020Z,101735.78
2022-11-28T00:41:39.163Z,101731.91
2022-11-28T00:44:07.380Z,101735.66
2022-11-28T00:46:35.587Z,101733.09
2022-11-28T00:49:03.742Z,101728.84
2022-11-28T00:51:33.635Z,101722.63
2022-11-28T00:54:04.035Z,101721.84
2022-11-28T00:56:36.311Z,101716.47
2022-11-28T00:59:04.888Z,101713.00
2022-11-28T01:01:37.116Z,101707.66
2022-11-28T01:04:08.002Z,101704.25
2022-11-28T01:06:38.347Z,101702.63
2022-11-28T01:09:09.107Z,101706.84
2022-11-28T01:11:40.874Z,101708.66
2022-11-28T01:14:10.295Z,101703.50
2022-11-28T01:16:39.040Z,101704.41
2022-11-28T01:19:07.935Z,101699.19
2022-11-28T01:21:36.552Z,101703.44
2022-11-28T01:24:05.124Z,101702.66
2022-11-28T01:26:33.273Z,101688.59
2022-11-28T01:29:02.798Z,101696.41
2022-11-28T01:31:31.745Z,101693.72
2022-11-28T01:34:00.371Z,101698.09
2022-11-28T01:36:28.845Z,101701.59
2022-11-28T01:38:57.012Z,101694.63
2022-11-28T01:41:27.808Z,101692.00
2022-11-28T01:44:02.437Z,101684.06
2022-11-28T01:46:34.476Z,101682.22
2022-11-28T01:49:12.667Z,101675.06
2022-11-28T01:51:45.778Z,101688.41
2022-11-28T01:54:15.568Z,101671.66
2022-11-28T01:56:48.422Z,101673.50
2022-11-28T01:59:17.195Z,101665.56
2022-11-28T02:01:47.582Z,101671.97
2022-11-28T02:04:15.890Z,101660.56
2022-11-28T02:06:44.318Z,101666.66
2022-11-28T02:09:14.016Z,101654.34
2022-11-28T02:12:21.552Z,101650.00
2022-11-28T02:15:05.390Z,101644.84
2022-11-28T02:17:44.898Z,101643.78
2022-11-28T02:20:39.086Z,101654.63
2022-11-28T02:23:13.632Z,101652.72
2022-11-28T02:26:29.018Z,101651.91
2022-11-28T02:29:23.028Z,101647.59
2022-11-28T02:32:14.584Z,101652.78
2022-11-28T02:34:50.745Z,101662.53
2022-11-28T02:37:27.283Z,101653.75
2022-11-28T02:40:06.954Z,101656.22
2022-11-28T02:42:43.304Z,101658.16
2022-11-28T02:45:19.718Z,101660.69
2022-11-28T02:47:55.722Z,101648.56
2022-11-28T02:50:28.551Z,101653.69
2022-11-28T02:53:01.511Z,101645.91
2022-11-28T02:55:30.018Z,101652.00
2022-11-28T02:57:58.214Z,101644.19
2022-11-28T03:00:29.918Z,101643.34
2022-11-28T03:03:34.645Z,101648.56
2022-11-28T03:06:14.277Z,101642.47
2022-11-28T03:08:56.831Z,101632.91
2022-11-28T03:11:37.807Z,101635.53
2022-11-28T03:14:16.400Z,101629.41
2022-11-28T03:16:49.961Z,101622.44
2022-11-28T03:19:26.894Z,101626.91
2022-11-28T03:22:03.913Z,101615.56
2022-11-28T03:24:38.944Z,101624.25
2022-11-28T03:27:15.236Z,101614.72
2022-11-28T03:29:46.792Z,101629.47
2022-11-28T03:32:21.333Z,101616.34
2022-11-28T03:34:57.499Z,101621.69
2022-11-28T03:37:30.912Z,101618.19
2022-11-28T03:40:02.924Z,101609.41
2022-11-28T03:42:35.968Z,101615.50
2022-11-28T03:45:09.661Z,101607.78
2022-11-28T03:47:43.008Z,101608.63
2022-11-28T03:50:18.027Z,101608.66
2022-11-28T03:52:51.267Z,101607.84
2022-11-28T03:55:24.419Z,101607.78
2022-11-28T03:57:59.696Z,101613.00
2022-11-28T04:00:27.906Z,101600.91
2022-11-28T04:03:03.662Z,101609.75
2022-11-28T04:05:43.172Z,101610.44
2022-11-28T04:08:18.364Z,101600.03
2022-11-28T04:10:53.538Z,101598.13
2022-11-28T04:13:25.087Z,101598.09
2022-11-28T04:16:00.441Z,101593.53
2022-11-28T04:18:33.739Z,101585.78
2022-11-28T04:21:11.368Z,101588.38
2022-11-28T04:23:41.560Z,101589.50
2022-11-28T04:26:14.927Z,101591.00
2022-11-28T04:28:44.918Z,101585.75
2022-11-28T04:31:14.364Z,101584.09
2022-11-28T04:33:46.174Z,101575.28
2022-11-28T04:36:18.798Z,101564.69
2022-11-28T04:38:56.119Z,101564.53
2022-11-28T04:41:29.714Z,101556.69
2022-11-28T04:44:04.002Z,101555.16
2022-11-28T04:46:36.057Z,101567.09
2022-11-28T04:49:04.390Z,101557.63
2022-11-28T04:51:44.159Z,101564.56
2022-11-28T04:54:17.283Z,101559.28
2022-11-28T04:56:48.123Z,101555.84
2022-11-28T04:59:16.870Z,101560.91
2022-11-28T05:01:49.316Z,101558.22
2022-11-28T05:04:18.001Z,101555.75
2022-11-28T05:06:48.148Z,101548.69
2022-11-28T05:09:16.732Z,101547.28
2022-11-28T05:11:45.358Z,101549.13
2022-11-28T05:14:13.510Z,101531.47
2022-11-28T05:16:41.709Z,101532.41
2022-11-28T05:19:09.934Z,101528.16
2022-11-28T05:21:38.060Z,101530.69
2022-11-28T05:24:08.811Z,101529.81
2022-11-28T05:26:38.011Z,101523.03
2022-11-28T05:29:06.823Z,101521.31
2022-11-28T05:31:35.046Z,101524.72
2022-11-28T05:34:03.234Z,101518.59
2022-11-28T05:36:31.452Z,101518.66
2022-11-28T05:38:59.580Z,101514.97
2022-11-28T05:41:30.947Z,101510.50
2022-11-28T05:44:00.338Z,101509.16
2022-11-28T05:46:29.776Z,101513.50
2022-11-28T05:48:58.352Z,101501.13
2022-11-28T05:51:26.484Z,101504.66
2022-11-28T05:53:54.658Z,101496.03
2022-11-28T05:56:23.905Z,101502.13
2022-11-28T05:58:53.582Z,101491.63
2022-11-28T06:01:23.697Z,101497.03
2022-11-28T06:03:58.063Z,101489.16
2022-11-28T06:06:28.627Z,101492.50
2022-11-28T06:08:57.287Z,101486.25
2022-11-28T06:11:27.250Z,101487.31
2022-11-28T06:13:57.121Z,101484.63
2022-11-28T06:16:27.057Z,101495.03
2022-11-28T06:18:56.534Z,101496.03
2022-11-28T06:21:25.958Z,101490.00
2022-11-28T06:23:54.835Z,101483.78
2022-11-28T06:26:24.136Z,101484.47
2022-11-28T06:28:52.864Z,101478.41
2022-11-28T06:31:23.877Z,101475.81
2022-11-28T06:33:52.317Z,101466.28
2022-11-28T06:36:21.116Z,101474.13
2022-11-28T06:38:49.767Z,101460.03
2022-11-28T06:41:20.793Z,101462.81
2022-11-28T06:43:48.926Z,101463.72
2022-11-28T06:46:18.920Z,101454.94
2022-11-28T06:48:50.118Z,101455.78
2022-11-28T06:51:19.298Z,101460.97
2022-11-28T06:53:47.450Z,101461.72
2022-11-28T06:56:17.559Z,101459.97
2022-11-28T06:58:46.844Z,101464.16
2022-11-28T07:01:17.285Z,101453.06
2022-11-28T07:03:45.756Z,101455.72
2022-11-28T07:06:17.035Z,101454.78
2022-11-28T07:08:45.397Z,101454.69
2022-11-28T07:11:15.500Z,101458.25
2022-11-28T07:13:45.707Z,101453.06
2022-11-28T07:16:16.676Z,101444.25
2022-11-28T07:18:45.876Z,101438.94
2022-11-28T07:21:16.475Z,101429.50
2022-11-28T07:23:45.467Z,101420.81
2022-11-28T07:26:15.131Z,101439.13
2022-11-28T07:28:44.239Z,101429.44
2022-11-28T07:31:15.536Z,101423.28
2022-11-28T07:33:45.748Z,101421.19
2022-11-28T07:36:17.552Z,101423.00
2022-11-28T07:38:48.071Z,101423.00
2022-11-28T07:41:16.476Z,101414.47
2022-11-28T07:43:46.750Z,101414.44
2022-11-28T07:46:17.311Z,101417.69
2022-11-28T07:48:46.758Z,101410.56
2022-11-28T07:51:18.286Z,101405.28
2022-11-28T07:53:47.291Z,101399.97
2022-11-28T07:56:17.264Z,101399.06
2022-11-28T07:58:47.199Z,101398.19
2022-11-28T08:01:18.508Z,101391.72
2022-11-28T08:03:47.282Z,101396.09
2022-11-28T08:06:18.553Z,101397.16
2022-11-28T08:08:47.256Z,101394.41
2022-11-28T08:11:17.096Z,101390.78
2022-11-28T08:13:46.479Z,101395.59
2022-11-28T08:16:16.910Z,101390.38
2022-11-28T08:18:45.598Z,101385.72
2022-11-28T08:21:17.064Z,101379.00
2022-11-28T08:23:46.914Z,101380.81
2022-11-28T08:26:17.089Z,101376.41
2022-11-28T08:28:45.724Z,101374.72
2022-11-28T08:31:16.654Z,101366.16
2022-11-28T08:33:45.680Z,101363.47
2022-11-28T08:36:15.680Z,101357.50
2022-11-28T08:39:03.236Z,101360.44
2022-11-28T08:41:32.131Z,101361.28
2022-11-28T08:44:00.269Z,101355.88
2022-11-28T08:46:28.955Z,101350.28
2022-11-28T08:48:57.152Z,101355.50
2022-11-28T08:51:25.403Z,101346.81
2022-11-28T08:53:59.121Z,101352.09
2022-11-28T08:56:28.216Z,101343.44
2022-11-28T08:58:56.457Z,101350.28
2022-11-28T09:01:27.044Z,101352.63
2022-11-28T09:03:56.885Z,101349.75
2022-11-28T09:06:25.941Z,101350.09
2022-11-28T09:08:55.388Z,101348.16
2022-11-28T09:11:24.661Z,101354.25
2022-11-28T09:13:52.946Z,101355.13
2022-11-28T09:16:21.216Z,101346.69
2022-11-28T09:18:49.436Z,101347.00
2022-11-28T09:21:17.880Z,101347.94
2022-11-28T09:23:46.150Z,101340.13
2022-11-28T09:26:17.648Z,101343.66
2022-11-28T09:28:46.306Z,101341.44
2022-11-28T09:31:16.915Z,101329.28
2022-11-28T09:33:45.912Z,101333.63
2022-11-28T09:36:15.833Z,101328.09
2022-11-28T09:38:44.199Z,101329.75
2022-11-28T09:41:32.560Z,101325.56
2022-11-28T09:44:07.922Z,101318.78
2022-11-28T09:46:38.284Z,101317.13
2022-11-28T09:49:36.732Z,101314.84
2022-11-28T09:52:18.845Z,101303.81
2022-11-28T09:54:53.279Z,101297.75
2022-11-28T09:57:32.526Z,101286.59
2022-11-28T10:00:00.891Z,101289.00
2022-11-28T10:02:38.799Z,101282.94
2022-11-28T10:05:16.550Z,101284.25
2022-11-28T10:07:58.017Z,101277.19
2022-11-28T10:10:37.558Z,101271.66
2022-11-28T10:13:15.109Z,101275.09
2022-11-28T10:15:53.102Z,101267.16
2022-11-28T10:18:34.559Z,101255.25
2022-11-28T10:21:09.734Z,101267.75
2022-11-28T10:23:41.981Z,101263.00
2022-11-28T10:26:17.757Z,101260.22
2022-11-28T10:28:51.308Z,101248.34
2022-11-28T10:31:27.413Z,101247.59
2022-11-28T10:34:01.848Z,101239.00
2022-11-28T10:36:34.967Z,101252.66
2022-11-28T10:39:12.065Z,101243.75
2022-11-28T10:41:45.926Z,101237.56
2022-11-28T10:44:23.334Z,101239.94
2022-11-28T10:46:58.746Z,101239.66
2022-11-28T10:49:36.023Z,101244.94
2022-11-28T10:52:12.996Z,101238.06
2022-11-28T10:54:54.682Z,101245.06
2022-11-28T10:57:28.533Z,101247.41
2022-11-28T11:00:04.083Z,101239.69
2022-11-28T11:02:38.968Z,101244.81
2022-11-28T11:05:13.045Z,101246.22
2022-11-28T11:07:48.062Z,101240.22
2022-11-28T11:10:18.044Z,101237.88
2022-11-28T11:12:47.294Z,101240.25
2022-11-28T11:15:20.651Z,101236.44
2022-11-28T11:17:50.411Z,101229.75
2022-11-28T11:20:34.997Z,101234.16
2022-11-28T11:23:13.472Z,101233.53
2022-11-28T11:25:49.303Z,101229.59
2022-11-28T11:28:40.264Z,101224.97
2022-11-28T11:31:19.969Z,101224.09
2022-11-28T11:33:49.752Z,101219.22
2022-11-28T11:36:23.614Z,101216.13
2022-11-28T11:38:52.259Z,101214.69
2022-11-28T11:41:29.458Z,101220.03
2022-11-28T11:43:57.941Z,101214.78
2022-11-28T11:46:27.445Z,101214.84
2022-11-28T11:48:55.585Z,101225.88
2022-11-28T11:51:26.170Z,101230.31
2022-11-28T11:54:05.522Z,101221.22
2022-11-28T11:56:39.676Z,101225.59
2022-11-28T11:59:14.737Z,101228.69
2022-11-28T12:01:46.879Z,101219.81
2022-11-28T12:04:43.825Z,101214.53
2022-11-28T12:07:29.326Z,101208.00
2022-11-28T12:10:03.057Z,101194.63
2022-11-28T12:12:38.989Z,101198.47
2022-11-28T12:15:16.419Z,101193.22
2022-11-28T12:17:59.026Z,101190.38
2022-11-28T12:20:48.352Z,101193.94
2022-11-28T12:23:30.682Z,101192.81
2022-11-28T12:26:07.370Z,101182.75
2022-11-28T12:28:48.768Z,101181.50
2022-11-28T12:31:29.481Z,101183.56
2022-11-28T12:34:08.463Z,101190.88
2022-11-28T12:36:43.407Z,101186.31
2022-11-28T12:39:19.274Z,101187.56
2022-11-28T12:42:17.553Z,101182.78
2022-11-28T12:44:58.281Z,101185.88
2022-11-28T12:47:41.244Z,101183.16
2022-11-28T12:50:22.246Z,101181.25
2022-11-28T12:52:59.803Z,101181.94
2022-11-28T12:55:36.700Z,101178.31
2022-11-28T12:58:15.426Z,101178.41
2022-11-28T13:00:52.993Z,101180.69
2022-11-28T13:03:35.053Z,101186.22
2022-11-28T13:06:19.212Z,101178.16
2022-11-28T13:08:59.836Z,101175.22
2022-11-28T13:11:40.074Z,101168.06
2022-11-28T13:14:15.744Z,101161.19
2022-11-28T13:16:47.671Z,101163.25
2022-11-28T13:19:35.076Z,101180.03
2022-11-28T13:22:10.926Z,101173.28
2022-11-28T13:24:44.703Z,101179.63
2022-11-28T13:27:22.356Z,101173.56
2022-11-28T13:30:13.253Z,101179.50
2022-11-28T13:32:47.601Z,101186.28
2022-11-28T13:35:18.453Z,101184.59
2022-11-28T13:40:48.705Z,101181.03
2022-11-28T13:43:25.518Z,101189.19
2022-11-28T13:45:54.247Z,101179.88
2022-11-28T13:49:14.908Z,101182.34
2022-11-28T13:51:43.764Z,101184.16
2022-11-28T13:54:52.822Z,101185.22
2022-11-28T13:57:28.568Z,101182.34
2022-11-28T14:00:21.873Z,101186.06
2022-11-28T14:02:53.508Z,101183.47
2022-11-28T14:05:30.006Z,101196.72
2022-11-28T14:07:59.058Z,101186.78
2022-11-28T14:10:56.481Z,101194.06
2022-11-28T14:13:40.467Z,101185.97
2022-11-28T14:16:21.317Z,101195.34
2022-11-28T14:19:05.081Z,101193.97
2022-11-28T14:21:48.788Z,101193.34
2022-11-28T14:24:25.552Z,101202.19
2022-11-28T14:27:01.518Z,101200.75
2022-11-28T14:29:39.278Z,101198.75
2022-11-28T14:32:29.588Z,101195.63
2022-11-28T14:34:56.423Z,101188.59
2022-11-28T14:37:50.734Z,101193.88
2022-11-28T14:41:05.237Z,101190.47
2022-11-28T14:43:37.674Z,101186.09
2022-11-28T14:46:28.672Z,101188.13
2022-11-28T14:49:20.096Z,101189.16
2022-11-28T14:55:21.493Z,101185.66
2022-11-28T14:57:57.876Z,101177.84
2022-11-28T15:00:29.593Z,101192.00
2022-11-28T15:03:11.462Z,101186.88
2022-11-28T15:05:46.144Z,101188.50
2022-11-28T15:08:29.448Z,101187.69
2022-11-28T15:11:20.896Z,101178.16
2022-11-28T15:14:08.914Z,101185.25
2022-11-28T15:16:48.259Z,101183.72
2022-11-28T15:19:25.632Z,101191.31
2022-11-28T15:21:55.817Z,101198.16
2022-11-28T15:24:27.664Z,101199.53
2022-11-28T15:26:57.975Z,101206.59
2022-11-28T15:29:28.776Z,101203.69
2022-11-28T15:31:59.374Z,101198.66
2022-11-28T15:34:30.764Z,101197.88
2022-11-28T15:37:01.338Z,101196.28
2022-11-28T15:39:34.860Z,101197.06
2022-11-28T15:42:05.927Z,101195.28
2022-11-28T15:44:34.158Z,101199.63
2022-11-28T15:47:04.844Z,101199.66
2022-11-28T15:49:38.487Z,101204.91
2022-11-28T15:52:07.031Z,101210.06
2022-11-28T15:54:38.292Z,101193.50
2022-11-28T15:57:07.143Z,101193.41
2022-11-28T15:59:36.235Z,101185.72
2022-11-28T16:02:22.623Z,101182.69
2022-11-28T16:04:54.441Z,101195.25
2022-11-28T16:07:22.637Z,101193.47
2022-11-28T16:09:57.342Z,101188.13
2022-11-28T16:12:26.209Z,101191.91
2022-11-28T16:14:58.798Z,101194.31
2022-11-28T16:17:32.196Z,101182.19
2022-11-28T16:20:01.574Z,101182.88
2022-11-28T16:22:35.186Z,101172.44
2022-11-28T16:25:19.848Z,101179.47
2022-11-28T16:27:52.954Z,101183.09
2022-11-28T16:30:36.835Z,101178.91
2022-11-28T16:33:36.502Z,101173.78
2022-11-28T16:36:16.816Z,101183.03
2022-11-28T16:38:47.088Z,101177.09
2022-11-28T16:41:17.985Z,101180.69
2022-11-28T16:43:49.948Z,101179.94
2022-11-28T16:46:21.858Z,101178.06
2022-11-28T16:48:56.351Z,101180.75
2022-11-28T16:51:35.854Z,101172.06
2022-11-28T16:54:34.451Z,101175.56
2022-11-28T16:57:10.768Z,101181.53
2022-11-28T16:59:38.925Z,101184.19
2022-11-28T17:02:15.252Z,101178.16
2022-11-28T17:04:45.662Z,101189.41
2022-11-28T17:07:16.329Z,101180.69
2022-11-28T17:09:47.244Z,101180.81
2022-11-28T17:12:24.032Z,101180.66
2022-11-28T17:14:52.269Z,101176.41
2022-11-28T17:17:23.183Z,101180.03
2022-11-28T17:19:52.987Z,101179.84
2022-11-28T17:22:22.891Z,101184.31
2022-11-28T17:24:52.999Z,101186.63
2022-11-28T17:27:21.181Z,101181.00
2022-11-28T17:29:49.404Z,101187.72
2022-11-28T17:32:17.569Z,101182.78
2022-11-28T17:34:46.549Z,101181.72
2022-11-28T17:37:16.486Z,101189.38
2022-11-28T17:40:04.628Z,101181.38
2022-11-28T17:42:32.967Z,101190.25
2022-11-28T17:45:01.213Z,101177.97
2022-11-28T17:47:32.519Z,101184.19
2022-11-28T17:50:00.690Z,101191.09
2022-11-28T17:52:30.924Z,101187.78
2022-11-28T17:55:06.888Z,101194.41
2022-11-28T17:57:36.609Z,101184.06
2022-11-28T18:00:06.500Z,101186.66
2022-11-28T18:02:42.082Z,101184.78
2022-11-28T18:05:10.810Z,101183.72
2022-11-28T18:07:41.960Z,101186.38
2022-11-28T18:10:12.800Z,101188.88
2022-11-28T18:12:42.183Z,101182.19
2022-11-28T18:15:11.246Z,101181.22
2022-11-28T18:17:39.790Z,101185.44
2022-11-28T18:20:11.160Z,101175.16
2022-11-28T18:22:39.435Z,101178.28
2022-11-28T18:25:10.650Z,101173.25
2022-11-28T18:27:39.361Z,101180.06
2022-11-28T18:30:09.359Z,101173.44
2022-11-28T18:32:37.915Z,101183.53
2022-11-28T18:35:07.817Z,101177.56
2022-11-28T18:37:38.668Z,101179.53
2022-11-28T18:40:09.774Z,101177.78
2022-11-28T18:42:38.922Z,101170.69
2022-11-28T18:45:08.755Z,101179.41
2022-11-28T18:47:37.066Z,101174.22
2022-11-28T18:50:06.154Z,101188.84
2022-11-28T18:52:35.408Z,101180.69
2022-11-28T18:55:04.195Z,101171.44
2022-11-28T18:57:35.074Z,101173.16
2022-11-28T19:00:04.845Z,101179.03
2022-11-28T19:02:34.458Z,101173.03
2022-11-28T19:05:06.012Z,101179.91
2022-11-28T19:07:34.293Z,101173.88
2022-11-28T19:10:02.473Z,101183.38
2022-11-28T19:12:31.375Z,101176.50
2022-11-28T19:15:02.671Z,101176.41
2022-11-28T19:17:31.053Z,101174.91
2022-11-28T19:19:59.195Z,101177.44
2022-11-28T19:22:27.349Z,101168.53
2022-11-28T19:24:55.724Z,101176.28
2022-11-28T19:27:24.260Z,101175.53
2022-11-28T19:29:54.635Z,101177.94
2022-11-28T19:32:24.637Z,101172.19
2022-11-28T19:34:53.588Z,101180.03
2022-11-28T19:37:21.754Z,101177.22
2022-11-28T19:39:49.878Z,101176.88
2022-11-28T19:42:18.479Z,101171.88
2022-11-28T19:44:46.753Z,101175.50
2022-11-28T19:47:15.004Z,101165.53
2022-11-28T19:49:45.434Z,101172.81
2022-11-28T19:52:14.750Z,101170.41
2022-11-28T19:54:42.912Z,101166.00
2022-11-28T19:57:11.348Z,101174.47
2022-11-28T19:59:39.574Z,101168.59
2022-11-28T20:02:07.813Z,101175.63
2022-11-28T20:04:36.026Z,101174.81
2022-11-28T20:07:05.497Z,101173.03
2022-11-28T20:09:34.003Z,101179.09
2022-11-28T20:12:02.387Z,101185.09
2022-11-28T20:14:32.367Z,101177.94
2022-11-28T20:17:01.063Z,101179.53
2022-11-28T20:19:29.345Z,101180.78
2022-11-28T20:21:58.524Z,101179.72
2022-11-28T20:24:30.133Z,101176.00
2022-11-28T20:26:58.598Z,101176.34
2022-11-28T20:29:28.102Z,101179.84
2022-11-28T20:31:57.297Z,101172.94
2022-11-28T20:34:26.874Z,101181.72
2022-11-28T20:36:55.223Z,101185.06
2022-11-28T20:39:23.674Z,101186.00
2022-11-28T20:41:53.139Z,101185.88
2022-11-28T20:44:21.867Z,101197.25
2022-11-28T20:46:50.349Z,101188.75
2022-11-28T20:49:19.180Z,101193.78
2022-11-28T20:51:47.585Z,101198.09
2022-11-28T20:54:15.736Z,101193.84
2022-11-28T20:57:19.797Z,101183.66
2022-11-28T20:59:34.654Z,101186.69
2022-11-28T21:02:02.982Z,101188.56
2022-11-28T21:04:32.371Z,101190.56
2022-11-28T21:07:00.537Z,101189.56
2022-11-28T21:09:28.749Z,101192.13
2022-11-28T21:11:58.983Z,101198.78
2022-11-28T21:14:28.937Z,101197.13
2022-11-28T21:16:59.685Z,101192.72
2022-11-28T21:19:28.123Z,101190.19
2022-11-28T21:21:56.272Z,101187.59
2022-11-28T21:24:24.630Z,101197.00
2022-11-28T21:26:54.676Z,101192.72
2022-11-28T21:29:24.909Z,101194.66
2022-11-28T21:31:53.824Z,101193.78
2022-11-28T21:34:23.457Z,101186.88
2022-11-28T21:36:51.622Z,101188.50
2022-11-28T21:39:21.979Z,101193.06
2022-11-28T21:41:51.844Z,101190.25
2022-11-28T21:44:20.557Z,101183.06
2022-11-28T21:46:50.413Z,101184.84
2022-11-28T21:49:18.893Z,101184.97
2022-11-28T21:51:48.415Z,101180.91
2022-11-28T21:54:16.711Z,101182.47
2022-11-28T21:56:46.380Z,101181.72
2022-11-28T21:59:14.803Z,101181.53
2022-11-28T22:01:43.357Z,101177.97
2022-11-28T22:04:12.012Z,101181.38
2022-11-28T22:06:40.789Z,101175.22
2022-11-28T22:09:10.663Z,101179.72
2022-11-28T22:11:40.810Z,101173.75
2022-11-28T22:14:09.080Z,101170.91
2022-11-28T22:16:38.147Z,101180.47
2022-11-28T22:19:06.635Z,101168.31
2022-11-28T22:21:53.882Z,101179.50
2022-11-28T22:24:25.793Z,101176.06
2022-11-28T22:26:55.952Z,101173.69
2022-11-28T22:29:25.286Z,101179.59
2022-11-28T22:31:55.302Z,101183.00
2022-11-28T22:34:24.809Z,101181.50
2022-11-28T22:36:52.980Z,101185.66
2022-11-28T22:39:21.999Z,101186.63
2022-11-28T22:41:51.795Z,101185.66
2022-11-28T22:44:21.443Z,101185.50
2022-11-28T22:46:49.968Z,101183.19
2022-11-28T22:49:19.518Z,101192.66
2022-11-28T22:51:48.787Z,101189.66
2022-11-28T22:54:17.018Z,101181.91
2022-11-28T22:56:45.166Z,101187.50
2022-11-28T22:59:16.203Z,101174.28
2022-11-28T23:01:44.806Z,101176.66
2022-11-28T23:04:13.904Z,101169.03
2022-11-28T23:06:43.219Z,101176.19
2022-11-28T23:09:14.017Z,101176.06
2022-11-28T23:11:42.932Z,101184.94
2022-11-28T23:14:13.812Z,101183.19
2022-11-28T23:16:45.446Z,101183.97
2022-11-28T23:19:16.931Z,101179.66
2022-11-28T23:21:47.622Z,101183.38
2022-11-28T23:24:18.753Z,101186.00
2022-11-28T23:26:48.199Z,101183.09
2022-11-28T23:29:17.171Z,101184.13
2022-11-28T23:31:48.633Z,101184.16
2022-11-28T23:34:17.741Z,101192.09
2022-11-28T23:36:47.795Z,101183.38
2022-11-28T23:39:18.171Z,101184.88
2022-11-28T23:41:47.170Z,101190.94
2022-11-28T23:44:16.401Z,101182.38
2022-11-28T23:46:45.091Z,101191.13
2022-11-28T23:49:15.329Z,101194.72
2022-11-28T23:51:43.630Z,101188.41
2022-11-28T23:54:12.933Z,101194.41
2022-11-28T23:56:42.775Z,101188.81
2022-11-28T23:59:12.856Z,101184.94
